sensor_id;sensor_type;location;lat;lon;timestamp;P1;durP1;ratioP1;P2;durP2;ratioP2
21315;SDS011;10817;55.820;13.030;2023-07-13T00:01:44;5.90;;;1.65;;
21315;SDS011;10817;55.820;13.030;2023-07-13T00:04:15;5.63;;;1.95;;
21315;SDS011;10817;55.820;13.030;2023-07-13T00:06:45;8.95;;;2.00;;
21315;SDS011;10817;55.820;13.030;2023-07-13T00:09:12;8.25;;;2.20;;
21315;SDS011;10817;55.820;13.030;2023-07-13T00:11:39;7.75;;;1.90;;
21315;SDS011;10817;55.820;13.030;2023-07-13T00:14:07;8.07;;;1.67;;
21315;SDS011;10817;55.820;13.030;2023-07-13T00:16:34;9.63;;;1.95;;
21315;SDS011;10817;55.820;13.030;2023-07-13T00:19:02;5.55;;;2.25;;
21315;SDS011;10817;55.820;13.030;2023-07-13T00:21:29;9.40;;;2.03;;
21315;SDS011;10817;55.820;13.030;2023-07-13T00:23:57;7.53;;;1.95;;
21315;SDS011;10817;55.820;13.030;2023-07-13T00:26:26;4.57;;;1.70;;
21315;SDS011;10817;55.820;13.030;2023-07-13T00:28:53;6.18;;;1.80;;
21315;SDS011;10817;55.820;13.030;2023-07-13T00:31:21;6.43;;;1.92;;
21315;SDS011;10817;55.820;13.030;2023-07-13T00:33:48;13.82;;;2.20;;
21315;SDS011;10817;55.820;13.030;2023-07-13T00:36:15;7.78;;;1.88;;
21315;SDS011;10817;55.820;13.030;2023-07-13T00:38:43;9.32;;;2.10;;
21315;SDS011;10817;55.820;13.030;2023-07-13T00:41:11;8.82;;;2.58;;
21315;SDS011;10817;55.820;13.030;2023-07-13T00:43:40;9.55;;;2.47;;
21315;SDS011;10817;55.820;13.030;2023-07-13T00:46:14;9.18;;;2.30;;
21315;SDS011;10817;55.820;13.030;2023-07-13T00:48:42;9.40;;;2.35;;
21315;SDS011;10817;55.820;13.030;2023-07-13T00:51:10;6.75;;;2.20;;
21315;SDS011;10817;55.820;13.030;2023-07-13T00:53:40;11.43;;;2.70;;
21315;SDS011;10817;55.820;13.030;2023-07-13T00:56:07;12.20;;;2.95;;
21315;SDS011;10817;55.820;13.030;2023-07-13T00:58:37;6.30;;;2.13;;
21315;SDS011;10817;55.820;13.030;2023-07-13T01:01:04;11.35;;;2.53;;
21315;SDS011;10817;55.820;13.030;2023-07-13T01:03:32;9.93;;;2.28;;
21315;SDS011;10817;55.820;13.030;2023-07-13T01:06:01;6.85;;;2.15;;
21315;SDS011;10817;55.820;13.030;2023-07-13T01:08:29;7.07;;;2.20;;
21315;SDS011;10817;55.820;13.030;2023-07-13T01:10:59;10.23;;;2.30;;
21315;SDS011;10817;55.820;13.030;2023-07-13T01:13:26;10.73;;;2.47;;
21315;SDS011;10817;55.820;13.030;2023-07-13T01:15:55;8.38;;;1.95;;
21315;SDS011;10817;55.820;13.030;2023-07-13T01:18:26;6.78;;;1.92;;
21315;SDS011;10817;55.820;13.030;2023-07-13T01:20:56;7.82;;;1.92;;
21315;SDS011;10817;55.820;13.030;2023-07-13T01:23:24;7.60;;;2.47;;
21315;SDS011;10817;55.820;13.030;2023-07-13T01:25:51;8.85;;;2.40;;
21315;SDS011;10817;55.820;13.030;2023-07-13T01:28:20;10.57;;;2.15;;
21315;SDS011;10817;55.820;13.030;2023-07-13T01:30:47;7.10;;;2.03;;
21315;SDS011;10817;55.820;13.030;2023-07-13T01:33:16;5.53;;;1.88;;
21315;SDS011;10817;55.820;13.030;2023-07-13T01:35:43;9.50;;;2.30;;
21315;SDS011;10817;55.820;13.030;2023-07-13T01:38:13;10.40;;;2.20;;
21315;SDS011;10817;55.820;13.030;2023-07-13T01:40:40;9.15;;;2.30;;
21315;SDS011;10817;55.820;13.030;2023-07-13T01:43:08;8.48;;;2.50;;
21315;SDS011;10817;55.820;13.030;2023-07-13T01:45:35;5.70;;;2.28;;
21315;SDS011;10817;55.820;13.030;2023-07-13T01:48:03;8.10;;;2.35;;
21315;SDS011;10817;55.820;13.030;2023-07-13T01:50:31;8.32;;;2.35;;
21315;SDS011;10817;55.820;13.030;2023-07-13T01:52:59;11.20;;;2.72;;
21315;SDS011;10817;55.820;13.030;2023-07-13T01:55:29;6.68;;;2.10;;
21315;SDS011;10817;55.820;13.030;2023-07-13T01:57:56;9.85;;;2.58;;
21315;SDS011;10817;55.820;13.030;2023-07-13T02:00:23;7.50;;;2.60;;
21315;SDS011;10817;55.820;13.030;2023-07-13T02:02:51;7.90;;;2.38;;
21315;SDS011;10817;55.820;13.030;2023-07-13T02:05:18;7.20;;;2.47;;
21315;SDS011;10817;55.820;13.030;2023-07-13T02:07:46;7.75;;;2.58;;
21315;SDS011;10817;55.820;13.030;2023-07-13T02:10:14;9.40;;;2.10;;
21315;SDS011;10817;55.820;13.030;2023-07-13T02:12:43;7.03;;;2.00;;
21315;SDS011;10817;55.820;13.030;2023-07-13T02:15:11;10.57;;;2.38;;
21315;SDS011;10817;55.820;13.030;2023-07-13T02:17:38;9.02;;;2.35;;
21315;SDS011;10817;55.820;13.030;2023-07-13T02:20:06;8.98;;;2.35;;
21315;SDS011;10817;55.820;13.030;2023-07-13T02:22:34;7.30;;;2.22;;
21315;SDS011;10817;55.820;13.030;2023-07-13T02:25:01;6.55;;;2.45;;
21315;SDS011;10817;55.820;13.030;2023-07-13T02:27:29;7.85;;;2.13;;
21315;SDS011;10817;55.820;13.030;2023-07-13T02:29:57;18.95;;;3.13;;
21315;SDS011;10817;55.820;13.030;2023-07-13T02:32:25;9.07;;;2.33;;
21315;SDS011;10817;55.820;13.030;2023-07-13T02:34:52;12.27;;;2.80;;
21315;SDS011;10817;55.820;13.030;2023-07-13T02:37:19;11.57;;;2.85;;
21315;SDS011;10817;55.820;13.030;2023-07-13T02:39:47;7.20;;;2.53;;
21315;SDS011;10817;55.820;13.030;2023-07-13T02:42:14;8.68;;;2.50;;
21315;SDS011;10817;55.820;13.030;2023-07-13T02:44:43;6.85;;;2.72;;
21315;SDS011;10817;55.820;13.030;2023-07-13T02:47:11;10.43;;;3.17;;
21315;SDS011;10817;55.820;13.030;2023-07-13T02:49:39;10.93;;;2.97;;
21315;SDS011;10817;55.820;13.030;2023-07-13T02:52:06;9.23;;;2.38;;
21315;SDS011;10817;55.820;13.030;2023-07-13T02:54:33;10.68;;;2.70;;
21315;SDS011;10817;55.820;13.030;2023-07-13T02:57:00;7.07;;;2.65;;
21315;SDS011;10817;55.820;13.030;2023-07-13T02:59:28;10.07;;;3.22;;
21315;SDS011;10817;55.820;13.030;2023-07-13T03:01:55;8.30;;;2.90;;
21315;SDS011;10817;55.820;13.030;2023-07-13T03:04:24;9.52;;;2.40;;
21315;SDS011;10817;55.820;13.030;2023-07-13T03:06:51;10.07;;;3.08;;
21315;SDS011;10817;55.820;13.030;2023-07-13T03:09:26;10.68;;;2.65;;
21315;SDS011;10817;55.820;13.030;2023-07-13T03:11:55;14.45;;;2.92;;
21315;SDS011;10817;55.820;13.030;2023-07-13T03:14:28;12.15;;;3.42;;
21315;SDS011;10817;55.820;13.030;2023-07-13T03:16:56;9.13;;;2.83;;
21315;SDS011;10817;55.820;13.030;2023-07-13T03:19:28;11.43;;;2.75;;
21315;SDS011;10817;55.820;13.030;2023-07-13T03:21:55;11.95;;;2.75;;
21315;SDS011;10817;55.820;13.030;2023-07-13T03:24:22;9.52;;;2.90;;
21315;SDS011;10817;55.820;13.030;2023-07-13T03:26:51;9.15;;;3.20;;
21315;SDS011;10817;55.820;13.030;2023-07-13T03:29:18;10.57;;;2.80;;
21315;SDS011;10817;55.820;13.030;2023-07-13T03:31:45;17.77;;;2.72;;
21315;SDS011;10817;55.820;13.030;2023-07-13T03:34:13;14.63;;;2.92;;
21315;SDS011;10817;55.820;13.030;2023-07-13T03:36:42;12.80;;;2.83;;
21315;SDS011;10817;55.820;13.030;2023-07-13T03:39:12;10.45;;;2.95;;
21315;SDS011;10817;55.820;13.030;2023-07-13T03:41:52;15.25;;;2.90;;
21315;SDS011;10817;55.820;13.030;2023-07-13T03:44:19;6.82;;;2.97;;
21315;SDS011;10817;55.820;13.030;2023-07-13T03:46:52;9.85;;;2.50;;
21315;SDS011;10817;55.820;13.030;2023-07-13T03:49:19;11.38;;;2.88;;
21315;SDS011;10817;55.820;13.030;2023-07-13T03:51:48;7.47;;;2.55;;
21315;SDS011;10817;55.820;13.030;2023-07-13T03:54:15;6.80;;;2.30;;
21315;SDS011;10817;55.820;13.030;2023-07-13T03:56:43;8.70;;;2.22;;
21315;SDS011;10817;55.820;13.030;2023-07-13T03:59:11;7.78;;;2.88;;
21315;SDS011;10817;55.820;13.030;2023-07-13T04:01:38;5.53;;;2.45;;
21315;SDS011;10817;55.820;13.030;2023-07-13T04:04:05;13.02;;;2.95;;
21315;SDS011;10817;55.820;13.030;2023-07-13T04:06:33;9.15;;;2.85;;
21315;SDS011;10817;55.820;13.030;2023-07-13T04:09:02;7.72;;;2.75;;
21315;SDS011;10817;55.820;13.030;2023-07-13T04:11:30;8.98;;;3.05;;
21315;SDS011;10817;55.820;13.030;2023-07-13T04:13:59;9.25;;;2.60;;
21315;SDS011;10817;55.820;13.030;2023-07-13T04:16:26;6.85;;;3.00;;
21315;SDS011;10817;55.820;13.030;2023-07-13T04:18:53;5.40;;;2.40;;
21315;SDS011;10817;55.820;13.030;2023-07-13T04:21:24;10.35;;;3.20;;
21315;SDS011;10817;55.820;13.030;2023-07-13T04:23:52;15.27;;;3.17;;
21315;SDS011;10817;55.820;13.030;2023-07-13T04:26:20;15.10;;;3.05;;
21315;SDS011;10817;55.820;13.030;2023-07-13T04:28:48;15.40;;;2.70;;
21315;SDS011;10817;55.820;13.030;2023-07-13T04:31:15;9.35;;;2.53;;
21315;SDS011;10817;55.820;13.030;2023-07-13T04:33:43;7.78;;;2.47;;
21315;SDS011;10817;55.820;13.030;2023-07-13T04:36:10;7.13;;;2.92;;
21315;SDS011;10817;55.820;13.030;2023-07-13T04:38:37;9.82;;;2.65;;
21315;SDS011;10817;55.820;13.030;2023-07-13T04:41:05;7.15;;;2.33;;
21315;SDS011;10817;55.820;13.030;2023-07-13T04:43:34;8.00;;;2.75;;
21315;SDS011;10817;55.820;13.030;2023-07-13T04:46:05;8.73;;;2.97;;
21315;SDS011;10817;55.820;13.030;2023-07-13T04:48:33;7.85;;;2.63;;
21315;SDS011;10817;55.820;13.030;2023-07-13T04:51:00;9.35;;;2.70;;
21315;SDS011;10817;55.820;13.030;2023-07-13T04:53:28;11.02;;;3.22;;
21315;SDS011;10817;55.820;13.030;2023-07-13T04:55:55;8.90;;;2.42;;
21315;SDS011;10817;55.820;13.030;2023-07-13T04:58:23;13.77;;;3.25;;
21315;SDS011;10817;55.820;13.030;2023-07-13T05:00:52;8.70;;;2.10;;
21315;SDS011;10817;55.820;13.030;2023-07-13T05:03:19;11.48;;;2.60;;
21315;SDS011;10817;55.820;13.030;2023-07-13T05:05:54;9.77;;;2.45;;
21315;SDS011;10817;55.820;13.030;2023-07-13T05:08:21;14.63;;;2.80;;
21315;SDS011;10817;55.820;13.030;2023-07-13T05:10:49;8.27;;;2.40;;
21315;SDS011;10817;55.820;13.030;2023-07-13T05:13:16;7.28;;;2.53;;
21315;SDS011;10817;55.820;13.030;2023-07-13T05:15:44;8.88;;;2.50;;
21315;SDS011;10817;55.820;13.030;2023-07-13T05:18:12;10.90;;;2.58;;
21315;SDS011;10817;55.820;13.030;2023-07-13T05:20:39;6.35;;;2.10;;
21315;SDS011;10817;55.820;13.030;2023-07-13T05:23:07;10.13;;;2.13;;
21315;SDS011;10817;55.820;13.030;2023-07-13T05:25:34;8.73;;;2.78;;
21315;SDS011;10817;55.820;13.030;2023-07-13T05:28:03;7.13;;;2.15;;
21315;SDS011;10817;55.820;13.030;2023-07-13T05:30:30;10.05;;;2.85;;
21315;SDS011;10817;55.820;13.030;2023-07-13T05:32:58;4.43;;;2.40;;
21315;SDS011;10817;55.820;13.030;2023-07-13T05:35:27;3.53;;;2.17;;
21315;SDS011;10817;55.820;13.030;2023-07-13T05:37:54;6.97;;;2.85;;
21315;SDS011;10817;55.820;13.030;2023-07-13T05:40:21;8.38;;;2.20;;
21315;SDS011;10817;55.820;13.030;2023-07-13T05:42:48;10.30;;;2.63;;
21315;SDS011;10817;55.820;13.030;2023-07-13T05:45:16;9.90;;;2.30;;
21315;SDS011;10817;55.820;13.030;2023-07-13T05:47:43;6.50;;;2.22;;
21315;SDS011;10817;55.820;13.030;2023-07-13T05:50:10;7.60;;;2.28;;
21315;SDS011;10817;55.820;13.030;2023-07-13T05:52:38;5.53;;;2.00;;
21315;SDS011;10817;55.820;13.030;2023-07-13T05:55:06;7.55;;;2.13;;
21315;SDS011;10817;55.820;13.030;2023-07-13T05:57:33;9.77;;;2.28;;
21315;SDS011;10817;55.820;13.030;2023-07-13T06:00:00;6.75;;;2.10;;
21315;SDS011;10817;55.820;13.030;2023-07-13T06:02:37;7.88;;;2.33;;
21315;SDS011;10817;55.820;13.030;2023-07-13T06:05:04;6.68;;;2.00;;
21315;SDS011;10817;55.820;13.030;2023-07-13T06:07:32;7.43;;;1.90;;
21315;SDS011;10817;55.820;13.030;2023-07-13T06:10:00;9.00;;;2.45;;
21315;SDS011;10817;55.820;13.030;2023-07-13T06:12:27;9.68;;;2.10;;
21315;SDS011;10817;55.820;13.030;2023-07-13T06:14:54;7.18;;;2.25;;
21315;SDS011;10817;55.820;13.030;2023-07-13T06:17:22;11.60;;;2.50;;
21315;SDS011;10817;55.820;13.030;2023-07-13T06:19:49;11.10;;;2.17;;
21315;SDS011;10817;55.820;13.030;2023-07-13T06:22:16;9.18;;;1.90;;
21315;SDS011;10817;55.820;13.030;2023-07-13T06:24:43;9.98;;;2.08;;
21315;SDS011;10817;55.820;13.030;2023-07-13T06:27:12;9.30;;;2.13;;
21315;SDS011;10817;55.820;13.030;2023-07-13T06:29:39;10.73;;;2.00;;
21315;SDS011;10817;55.820;13.030;2023-07-13T06:32:10;8.77;;;2.13;;
21315;SDS011;10817;55.820;13.030;2023-07-13T06:34:37;10.23;;;2.10;;
21315;SDS011;10817;55.820;13.030;2023-07-13T06:37:05;6.47;;;2.25;;
21315;SDS011;10817;55.820;13.030;2023-07-13T06:39:32;9.02;;;2.42;;
21315;SDS011;10817;55.820;13.030;2023-07-13T06:41:59;12.27;;;2.45;;
21315;SDS011;10817;55.820;13.030;2023-07-13T06:44:28;6.90;;;2.03;;
21315;SDS011;10817;55.820;13.030;2023-07-13T06:46:55;8.32;;;1.67;;
21315;SDS011;10817;55.820;13.030;2023-07-13T06:49:22;9.05;;;2.10;;
21315;SDS011;10817;55.820;13.030;2023-07-13T06:51:49;6.90;;;2.50;;
21315;SDS011;10817;55.820;13.030;2023-07-13T06:54:16;5.80;;;1.60;;
21315;SDS011;10817;55.820;13.030;2023-07-13T06:56:44;2.85;;;1.10;;
21315;SDS011;10817;55.820;13.030;2023-07-13T06:59:11;4.78;;;1.40;;
21315;SDS011;10817;55.820;13.030;2023-07-13T07:01:40;5.45;;;1.48;;
21315;SDS011;10817;55.820;13.030;2023-07-13T07:04:07;4.15;;;1.38;;
21315;SDS011;10817;55.820;13.030;2023-07-13T07:06:34;10.50;;;1.67;;
21315;SDS011;10817;55.820;13.030;2023-07-13T07:09:02;2.70;;;1.30;;
21315;SDS011;10817;55.820;13.030;2023-07-13T07:11:29;2.40;;;1.20;;
21315;SDS011;10817;55.820;13.030;2023-07-13T07:13:56;6.20;;;1.85;;
21315;SDS011;10817;55.820;13.030;2023-07-13T07:16:23;5.47;;;1.70;;
21315;SDS011;10817;55.820;13.030;2023-07-13T07:18:53;5.45;;;2.00;;
21315;SDS011;10817;55.820;13.030;2023-07-13T07:21:20;5.60;;;1.75;;
21315;SDS011;10817;55.820;13.030;2023-07-13T07:23:48;5.22;;;1.75;;
21315;SDS011;10817;55.820;13.030;2023-07-13T07:26:15;6.25;;;1.67;;
21315;SDS011;10817;55.820;13.030;2023-07-13T07:28:42;5.10;;;1.75;;
21315;SDS011;10817;55.820;13.030;2023-07-13T07:31:10;8.80;;;1.90;;
21315;SDS011;10817;55.820;13.030;2023-07-13T07:33:37;5.20;;;1.92;;
21315;SDS011;10817;55.820;13.030;2023-07-13T07:36:06;9.57;;;1.90;;
21315;SDS011;10817;55.820;13.030;2023-07-13T07:38:33;9.55;;;2.10;;
21315;SDS011;10817;55.820;13.030;2023-07-13T07:41:02;8.50;;;1.90;;
21315;SDS011;10817;55.820;13.030;2023-07-13T07:43:29;5.75;;;1.90;;
21315;SDS011;10817;55.820;13.030;2023-07-13T07:45:57;8.73;;;2.00;;
21315;SDS011;10817;55.820;13.030;2023-07-13T07:48:24;5.68;;;2.00;;
21315;SDS011;10817;55.820;13.030;2023-07-13T07:50:51;7.25;;;1.80;;
21315;SDS011;10817;55.820;13.030;2023-07-13T07:53:19;8.73;;;1.92;;
21315;SDS011;10817;55.820;13.030;2023-07-13T07:55:47;6.07;;;2.13;;
21315;SDS011;10817;55.820;13.030;2023-07-13T07:58:14;5.75;;;2.00;;
21315;SDS011;10817;55.820;13.030;2023-07-13T08:00:42;5.45;;;2.05;;
21315;SDS011;10817;55.820;13.030;2023-07-13T08:03:09;6.70;;;1.65;;
21315;SDS011;10817;55.820;13.030;2023-07-13T08:05:36;9.70;;;2.25;;
21315;SDS011;10817;55.820;13.030;2023-07-13T08:08:03;5.20;;;2.20;;
21315;SDS011;10817;55.820;13.030;2023-07-13T08:10:34;6.55;;;2.40;;
21315;SDS011;10817;55.820;13.030;2023-07-13T08:13:02;7.82;;;2.80;;
21315;SDS011;10817;55.820;13.030;2023-07-13T08:15:29;7.15;;;2.70;;
21315;SDS011;10817;55.820;13.030;2023-07-13T08:17:56;10.23;;;2.42;;
21315;SDS011;10817;55.820;13.030;2023-07-13T08:20:23;11.38;;;2.90;;
21315;SDS011;10817;55.820;13.030;2023-07-13T08:22:50;11.40;;;3.38;;
21315;SDS011;10817;55.820;13.030;2023-07-13T08:25:17;9.48;;;3.13;;
21315;SDS011;10817;55.820;13.030;2023-07-13T08:27:47;8.80;;;3.08;;
21315;SDS011;10817;55.820;13.030;2023-07-13T08:30:14;6.45;;;2.70;;
21315;SDS011;10817;55.820;13.030;2023-07-13T08:32:42;9.00;;;2.55;;
21315;SDS011;10817;55.820;13.030;2023-07-13T08:35:09;4.78;;;2.20;;
21315;SDS011;10817;55.820;13.030;2023-07-13T08:37:37;7.43;;;2.58;;
21315;SDS011;10817;55.820;13.030;2023-07-13T08:40:04;6.40;;;1.92;;
21315;SDS011;10817;55.820;13.030;2023-07-13T08:42:33;4.18;;;1.70;;
21315;SDS011;10817;55.820;13.030;2023-07-13T08:45:14;6.47;;;1.80;;
21315;SDS011;10817;55.820;13.030;2023-07-13T08:47:46;3.88;;;1.77;;
21315;SDS011;10817;55.820;13.030;2023-07-13T08:50:15;3.53;;;1.58;;
21315;SDS011;10817;55.820;13.030;2023-07-13T08:52:43;9.30;;;1.70;;
21315;SDS011;10817;55.820;13.030;2023-07-13T08:55:12;4.50;;;1.70;;
21315;SDS011;10817;55.820;13.030;2023-07-13T08:57:39;4.20;;;1.33;;
21315;SDS011;10817;55.820;13.030;2023-07-13T09:00:09;5.82;;;1.50;;
21315;SDS011;10817;55.820;13.030;2023-07-13T09:02:41;3.58;;;1.50;;
21315;SDS011;10817;55.820;13.030;2023-07-13T09:05:10;5.28;;;1.65;;
21315;SDS011;10817;55.820;13.030;2023-07-13T09:07:40;2.72;;;1.35;;
21315;SDS011;10817;55.820;13.030;2023-07-13T09:10:12;5.05;;;1.50;;
21315;SDS011;10817;55.820;13.030;2023-07-13T09:12:45;5.78;;;1.30;;
21315;SDS011;10817;55.820;13.030;2023-07-13T09:15:21;5.82;;;1.60;;
21315;SDS011;10817;55.820;13.030;2023-07-13T09:17:52;5.07;;;1.38;;
21315;SDS011;10817;55.820;13.030;2023-07-13T09:20:23;2.95;;;1.42;;
21315;SDS011;10817;55.820;13.030;2023-07-13T09:22:52;7.07;;;1.60;;
21315;SDS011;10817;55.820;13.030;2023-07-13T09:25:22;9.98;;;2.03;;
21315;SDS011;10817;55.820;13.030;2023-07-13T09:27:50;6.05;;;1.80;;
21315;SDS011;10817;55.820;13.030;2023-07-13T09:30:30;9.43;;;1.65;;
21315;SDS011;10817;55.820;13.030;2023-07-13T09:33:00;6.82;;;2.03;;
21315;SDS011;10817;55.820;13.030;2023-07-13T09:35:28;7.78;;;2.25;;
21315;SDS011;10817;55.820;13.030;2023-07-13T09:38:01;5.95;;;1.70;;
21315;SDS011;10817;55.820;13.030;2023-07-13T09:40:34;7.95;;;1.90;;
21315;SDS011;10817;55.820;13.030;2023-07-13T09:43:03;13.48;;;2.42;;
21315;SDS011;10817;55.820;13.030;2023-07-13T09:45:33;12.40;;;2.40;;
21315;SDS011;10817;55.820;13.030;2023-07-13T09:48:05;8.93;;;2.80;;
21315;SDS011;10817;55.820;13.030;2023-07-13T09:50:33;6.30;;;2.85;;
21315;SDS011;10817;55.820;13.030;2023-07-13T09:53:00;10.43;;;2.10;;
21315;SDS011;10817;55.820;13.030;2023-07-13T09:55:29;6.07;;;1.60;;
21315;SDS011;10817;55.820;13.030;2023-07-13T09:57:56;5.80;;;1.60;;
21315;SDS011;10817;55.820;13.030;2023-07-13T10:00:25;8.25;;;2.05;;
21315;SDS011;10817;55.820;13.030;2023-07-13T10:03:00;2.50;;;1.10;;
21315;SDS011;10817;55.820;13.030;2023-07-13T10:05:30;4.70;;;1.45;;
21315;SDS011;10817;55.820;13.030;2023-07-13T10:08:03;5.63;;;1.20;;
21315;SDS011;10817;55.820;13.030;2023-07-13T10:10:32;4.65;;;1.17;;
21315;SDS011;10817;55.820;13.030;2023-07-13T10:13:00;4.47;;;1.13;;
21315;SDS011;10817;55.820;13.030;2023-07-13T10:15:29;3.80;;;1.20;;
21315;SDS011;10817;55.820;13.030;2023-07-13T10:17:57;2.35;;;0.98;;
21315;SDS011;10817;55.820;13.030;2023-07-13T10:20:24;3.03;;;1.25;;
21315;SDS011;10817;55.820;13.030;2023-07-13T10:22:54;3.67;;;1.13;;
21315;SDS011;10817;55.820;13.030;2023-07-13T10:25:24;3.15;;;1.02;;
21315;SDS011;10817;55.820;13.030;2023-07-13T10:27:53;2.65;;;0.95;;
21315;SDS011;10817;55.820;13.030;2023-07-13T10:30:21;2.45;;;0.90;;
21315;SDS011;10817;55.820;13.030;2023-07-13T10:32:50;2.83;;;1.00;;
21315;SDS011;10817;55.820;13.030;2023-07-13T10:35:19;1.30;;;0.77;;
21315;SDS011;10817;55.820;13.030;2023-07-13T10:37:48;1.80;;;0.93;;
21315;SDS011;10817;55.820;13.030;2023-07-13T10:40:19;2.28;;;0.88;;
21315;SDS011;10817;55.820;13.030;2023-07-13T10:42:47;2.75;;;0.80;;
21315;SDS011;10817;55.820;13.030;2023-07-13T10:45:18;1.52;;;0.93;;
21315;SDS011;10817;55.820;13.030;2023-07-13T10:47:45;4.18;;;1.02;;
21315;SDS011;10817;55.820;13.030;2023-07-13T10:50:15;4.38;;;1.15;;
21315;SDS011;10817;55.820;13.030;2023-07-13T10:52:45;3.92;;;1.30;;
21315;SDS011;10817;55.820;13.030;2023-07-13T10:58:10;3.85;;;1.00;;
21315;SDS011;10817;55.820;13.030;2023-07-13T11:00:43;5.38;;;1.27;;
21315;SDS011;10817;55.820;13.030;2023-07-13T11:03:10;3.88;;;1.40;;
21315;SDS011;10817;55.820;13.030;2023-07-13T11:05:40;3.42;;;1.30;;
21315;SDS011;10817;55.820;13.030;2023-07-13T11:08:13;3.30;;;1.40;;
21315;SDS011;10817;55.820;13.030;2023-07-13T11:10:47;3.38;;;1.17;;
21315;SDS011;10817;55.820;13.030;2023-07-13T11:16:02;1.35;;;1.02;;
21315;SDS011;10817;55.820;13.030;2023-07-13T11:18:38;1.50;;;1.20;;
21315;SDS011;10817;55.820;13.030;2023-07-13T11:21:12;1.67;;;1.00;;
21315;SDS011;10817;55.820;13.030;2023-07-13T11:23:41;1.58;;;0.90;;
21315;SDS011;10817;55.820;13.030;2023-07-13T11:28:51;3.45;;;0.98;;
21315;SDS011;10817;55.820;13.030;2023-07-13T11:31:20;2.55;;;0.90;;
21315;SDS011;10817;55.820;13.030;2023-07-13T11:33:50;1.98;;;0.88;;
21315;SDS011;10817;55.820;13.030;2023-07-13T11:36:18;1.70;;;0.80;;
21315;SDS011;10817;55.820;13.030;2023-07-13T11:38:50;1.75;;;0.75;;
21315;SDS011;10817;55.820;13.030;2023-07-13T11:41:18;2.03;;;0.75;;
21315;SDS011;10817;55.820;13.030;2023-07-13T11:43:48;2.15;;;0.80;;
21315;SDS011;10817;55.820;13.030;2023-07-13T11:46:17;2.17;;;0.85;;
21315;SDS011;10817;55.820;13.030;2023-07-13T11:48:48;2.70;;;0.80;;
21315;SDS011;10817;55.820;13.030;2023-07-13T11:51:19;3.90;;;0.90;;
21315;SDS011;10817;55.820;13.030;2023-07-13T11:53:48;4.97;;;1.15;;
21315;SDS011;10817;55.820;13.030;2023-07-13T11:56:16;3.05;;;1.00;;
21315;SDS011;10817;55.820;13.030;2023-07-13T11:58:43;2.75;;;0.80;;
21315;SDS011;10817;55.820;13.030;2023-07-13T12:01:15;2.33;;;0.73;;
21315;SDS011;10817;55.820;13.030;2023-07-13T12:03:44;3.67;;;1.02;;
21315;SDS011;10817;55.820;13.030;2023-07-13T12:06:21;3.22;;;0.85;;
21315;SDS011;10817;55.820;13.030;2023-07-13T12:08:49;3.05;;;0.80;;
21315;SDS011;10817;55.820;13.030;2023-07-13T12:11:17;2.38;;;0.85;;
21315;SDS011;10817;55.820;13.030;2023-07-13T12:13:46;2.70;;;0.90;;
21315;SDS011;10817;55.820;13.030;2023-07-13T12:16:15;2.08;;;0.77;;
21315;SDS011;10817;55.820;13.030;2023-07-13T12:18:43;3.67;;;0.70;;
21315;SDS011;10817;55.820;13.030;2023-07-13T12:21:13;5.57;;;0.80;;
21315;SDS011;10817;55.820;13.030;2023-07-13T12:23:45;2.75;;;0.80;;
21315;SDS011;10817;55.820;13.030;2023-07-13T12:26:14;2.13;;;0.60;;
21315;SDS011;10817;55.820;13.030;2023-07-13T12:28:44;1.15;;;0.65;;
21315;SDS011;10817;55.820;13.030;2023-07-13T12:31:20;1.48;;;0.77;;
21315;SDS011;10817;55.820;13.030;2023-07-13T12:33:55;2.65;;;0.90;;
21315;SDS011;10817;55.820;13.030;2023-07-13T12:36:22;3.42;;;0.90;;
21315;SDS011;10817;55.820;13.030;2023-07-13T12:38:51;1.85;;;0.70;;
21315;SDS011;10817;55.820;13.030;2023-07-13T12:41:19;2.92;;;0.80;;
21315;SDS011;10817;55.820;13.030;2023-07-13T12:43:48;2.38;;;1.10;;
21315;SDS011;10817;55.820;13.030;2023-07-13T12:46:17;7.50;;;1.08;;
21315;SDS011;10817;55.820;13.030;2023-07-13T12:48:47;2.55;;;0.90;;
21315;SDS011;10817;55.820;13.030;2023-07-13T12:51:14;2.47;;;0.90;;
21315;SDS011;10817;55.820;13.030;2023-07-13T12:53:48;2.40;;;0.90;;
21315;SDS011;10817;55.820;13.030;2023-07-13T12:56:19;1.95;;;0.80;;
21315;SDS011;10817;55.820;13.030;2023-07-13T12:58:48;3.47;;;0.80;;
21315;SDS011;10817;55.820;13.030;2023-07-13T13:01:20;2.10;;;0.90;;
21315;SDS011;10817;55.820;13.030;2023-07-13T13:03:49;4.80;;;1.52;;
21315;SDS011;10817;55.820;13.030;2023-07-13T13:06:21;3.65;;;1.27;;
21315;SDS011;10817;55.820;13.030;2023-07-13T13:08:49;2.63;;;1.10;;
21315;SDS011;10817;55.820;13.030;2023-07-13T13:11:18;2.42;;;0.98;;
21315;SDS011;10817;55.820;13.030;2023-07-13T13:13:51;3.63;;;1.00;;
21315;SDS011;10817;55.820;13.030;2023-07-13T13:16:20;3.28;;;1.20;;
21315;SDS011;10817;55.820;13.030;2023-07-13T13:18:48;1.95;;;1.00;;
21315;SDS011;10817;55.820;13.030;2023-07-13T13:21:16;3.05;;;0.80;;
21315;SDS011;10817;55.820;13.030;2023-07-13T13:23:44;2.35;;;0.88;;
21315;SDS011;10817;55.820;13.030;2023-07-13T13:26:11;2.55;;;0.90;;
21315;SDS011;10817;55.820;13.030;2023-07-13T13:28:41;12.18;;;2.25;;
21315;SDS011;10817;55.820;13.030;2023-07-13T13:31:09;11.32;;;2.63;;
21315;SDS011;10817;55.820;13.030;2023-07-13T13:33:37;13.68;;;3.05;;
21315;SDS011;10817;55.820;13.030;2023-07-13T13:36:12;14.90;;;2.70;;
21315;SDS011;10817;55.820;13.030;2023-07-13T13:38:41;9.13;;;2.03;;
21315;SDS011;10817;55.820;13.030;2023-07-13T13:41:09;10.48;;;2.47;;
21315;SDS011;10817;55.820;13.030;2023-07-13T13:43:36;14.65;;;2.40;;
21315;SDS011;10817;55.820;13.030;2023-07-13T13:46:09;10.07;;;2.60;;
21315;SDS011;10817;55.820;13.030;2023-07-13T13:48:38;15.07;;;2.85;;
21315;SDS011;10817;55.820;13.030;2023-07-13T13:51:09;9.05;;;2.30;;
21315;SDS011;10817;55.820;13.030;2023-07-13T13:53:38;16.48;;;2.78;;
21315;SDS011;10817;55.820;13.030;2023-07-13T13:56:07;10.52;;;2.30;;
21315;SDS011;10817;55.820;13.030;2023-07-13T13:58:34;13.80;;;2.72;;
21315;SDS011;10817;55.820;13.030;2023-07-13T14:01:02;6.55;;;1.88;;
21315;SDS011;10817;55.820;13.030;2023-07-13T14:03:32;6.78;;;1.80;;
21315;SDS011;10817;55.820;13.030;2023-07-13T14:05:59;7.05;;;1.17;;
21315;SDS011;10817;55.820;13.030;2023-07-13T14:08:26;3.97;;;1.08;;
21315;SDS011;10817;55.820;13.030;2023-07-13T14:10:54;3.15;;;1.10;;
21315;SDS011;10817;55.820;13.030;2023-07-13T14:13:24;4.00;;;0.88;;
21315;SDS011;10817;55.820;13.030;2023-07-13T14:15:52;1.98;;;0.90;;
21315;SDS011;10817;55.820;13.030;2023-07-13T14:18:20;3.40;;;0.90;;
21315;SDS011;10817;55.820;13.030;2023-07-13T14:20:51;2.05;;;1.10;;
21315;SDS011;10817;55.820;13.030;2023-07-13T14:23:18;1.33;;;0.70;;
21315;SDS011;10817;55.820;13.030;2023-07-13T14:25:46;0.88;;;0.68;;
21315;SDS011;10817;55.820;13.030;2023-07-13T14:28:20;0.93;;;0.50;;
21315;SDS011;10817;55.820;13.030;2023-07-13T14:30:48;2.90;;;0.82;;
21315;SDS011;10817;55.820;13.030;2023-07-13T14:33:15;1.50;;;0.70;;
21315;SDS011;10817;55.820;13.030;2023-07-13T14:35:42;1.88;;;0.60;;
21315;SDS011;10817;55.820;13.030;2023-07-13T14:38:11;3.95;;;0.93;;
21315;SDS011;10817;55.820;13.030;2023-07-13T14:40:39;2.40;;;0.73;;
21315;SDS011;10817;55.820;13.030;2023-07-13T14:43:09;2.10;;;0.95;;
21315;SDS011;10817;55.820;13.030;2023-07-13T14:45:38;2.03;;;0.90;;
21315;SDS011;10817;55.820;13.030;2023-07-13T14:48:09;2.08;;;0.90;;